sensor_id;sensor_type;location;lat;lon;timestamp;P1;P2;P0
65973;PMS5003;52729;54.906;73.316;2022-09-03T00:06:14;6.00;4.50;2.00
65973;PMS5003;52729;54.906;73.316;2022-09-03T00:09:26;6.50;5.50;2.00
65973;PMS5003;52729;54.906;73.316;2022-09-03T00:12:33;6.25;4.00;1.00
65973;PMS5003;52729;54.906;73.316;2022-09-03T00:15:38;7.00;5.50;1.25
65973;PMS5003;52729;54.906;73.316;2022-09-03T00:18:42;6.00;6.00;2.00
65973;PMS5003;52729;54.906;73.316;2022-09-03T00:21:46;6.00;5.25;2.00
65973;PMS5003;52729;54.906;73.316;2022-09-03T00:24:49;6.50;6.50;3.50
65973;PMS5003;52729;54.906;73.316;2022-09-03T00:28:01;5.00;5.00;2.00
65973;PMS5003;52729;54.906;73.316;2022-09-03T00:31:07;6.75;6.50;2.25
65973;PMS5003;52729;54.906;73.316;2022-09-03T00:37:22;5.50;3.75;1.00
65973;PMS5003;52729;54.906;73.316;2022-09-03T00:57:11;6.25;6.00;2.00
65973;PMS5003;52729;54.906;73.316;2022-09-03T01:00:16;6.50;5.00;1.50
65973;PMS5003;52729;54.906;73.316;2022-09-03T01:03:22;4.75;3.75;0.00
65973;PMS5003;52729;54.906;73.316;2022-09-03T01:06:49;4.00;4.00;0.25
65973;PMS5003;52729;54.906;73.316;2022-09-03T01:10:33;7.00;6.00;1.00
65973;PMS5003;52729;54.906;73.316;2022-09-03T01:13:36;9.75;5.00;0.00
65973;PMS5003;52729;54.906;73.316;2022-09-03T01:26:27;4.50;4.50;0.50
65973;PMS5003;52729;54.906;73.316;2022-09-03T01:29:55;5.00;5.00;1.00
65973;PMS5003;52729;54.906;73.316;2022-09-03T01:39:12;7.25;7.00;1.00
65973;PMS5003;52729;54.906;73.316;2022-09-03T01:49:00;7.00;6.50;1.75
65973;PMS5003;52729;54.906;73.316;2022-09-03T01:52:21;5.00;5.00;1.00
65973;PMS5003;52729;54.906;73.316;2022-09-03T01:55:45;5.25;5.00;2.00
65973;PMS5003;52729;54.906;73.316;2022-09-03T02:02:21;5.00;5.00;2.00
65973;PMS5003;52729;54.906;73.316;2022-09-03T02:05:28;6.25;6.00;1.00
65973;PMS5003;52729;54.906;73.316;2022-09-03T02:08:29;8.00;6.00;1.00
65973;PMS5003;52729;54.906;73.316;2022-09-03T02:11:35;5.00;5.00;1.00
65973;PMS5003;52729;54.906;73.316;2022-09-03T02:14:37;6.50;5.00;2.00
65973;PMS5003;52729;54.906;73.316;2022-09-03T02:17:48;7.00;5.00;2.00
65973;PMS5003;52729;54.906;73.316;2022-09-03T02:20:51;8.00;7.00;1.00
65973;PMS5003;52729;54.906;73.316;2022-09-03T02:23:58;7.00;7.00;1.00
65973;PMS5003;52729;54.906;73.316;2022-09-03T02:27:10;9.00;8.00;2.00
65973;PMS5003;52729;54.906;73.316;2022-09-03T02:30:11;8.00;7.00;3.00
65973;PMS5003;52729;54.906;73.316;2022-09-03T02:33:22;7.25;6.75;2.00
65973;PMS5003;52729;54.906;73.316;2022-09-03T02:36:24;5.25;4.25;1.00
65973;PMS5003;52729;54.906;73.316;2022-09-03T02:39:27;7.25;7.25;1.00
65973;PMS5003;52729;54.906;73.316;2022-09-03T02:42:28;6.00;6.00;1.75
65973;PMS5003;52729;54.906;73.316;2022-09-03T02:45:29;8.00;7.25;3.00
65973;PMS5003;52729;54.906;73.316;2022-09-03T02:48:32;9.00;9.00;4.00
65973;PMS5003;52729;54.906;73.316;2022-09-03T02:51:34;10.00;9.25;4.00
65973;PMS5003;52729;54.906;73.316;2022-09-03T02:54:46;8.50;8.50;3.50
65973;PMS5003;52729;54.906;73.316;2022-09-03T02:57:47;10.00;8.75;4.00
65973;PMS5003;52729;54.906;73.316;2022-09-03T03:00:53;9.00;8.00;3.00
65973;PMS5003;52729;54.906;73.316;2022-09-03T03:03:54;6.50;6.00;3.00
65973;PMS5003;52729;54.906;73.316;2022-09-03T03:06:55;6.25;6.25;3.25
65973;PMS5003;52729;54.906;73.316;2022-09-03T03:09:57;9.25;8.50;4.00
65973;PMS5003;52729;54.906;73.316;2022-09-03T03:13:08;10.50;8.00;4.00
65973;PMS5003;52729;54.906;73.316;2022-09-03T03:16:19;8.50;5.75;2.75
65973;PMS5003;52729;54.906;73.316;2022-09-03T03:19:20;7.00;6.00;2.25
65973;PMS5003;52729;54.906;73.316;2022-09-03T03:22:21;9.00;8.00;2.75
65973;PMS5003;52729;54.906;73.316;2022-09-03T03:25:22;12.50;10.75;4.00
65973;PMS5003;52729;54.906;73.316;2022-09-03T03:28:33;16.50;12.50;5.00
65973;PMS5003;52729;54.906;73.316;2022-09-03T03:31:35;16.75;13.25;5.00
65973;PMS5003;52729;54.906;73.316;2022-09-03T03:34:36;11.25;9.00;4.00
65973;PMS5003;52729;54.906;73.316;2022-09-03T03:37:41;9.00;9.00;3.00
65973;PMS5003;52729;54.906;73.316;2022-09-03T03:40:52;8.00;7.75;3.00
65973;PMS5003;52729;54.906;73.316;2022-09-03T03:43:58;7.00;7.00;3.00
65973;PMS5003;52729;54.906;73.316;2022-09-03T03:47:09;7.00;7.00;2.50
65973;PMS5003;52729;54.906;73.316;2022-09-03T03:50:11;9.50;9.00;3.00
65973;PMS5003;52729;54.906;73.316;2022-09-03T03:53:12;7.50;7.00;2.25
65973;PMS5003;52729;54.906;73.316;2022-09-03T03:56:14;11.00;9.00;4.00
65973;PMS5003;52729;54.906;73.316;2022-09-03T03:59:21;12.00;10.25;5.00
65973;PMS5003;52729;54.906;73.316;2022-09-03T04:02:22;12.50;11.75;4.00
65973;PMS5003;52729;54.906;73.316;2022-09-03T04:05:33;10.00;8.25;2.00
65973;PMS5003;52729;54.906;73.316;2022-09-03T04:08:40;11.50;10.25;3.00
65973;PMS5003;52729;54.906;73.316;2022-09-03T04:11:42;12.25;11.25;4.25
65973;PMS5003;52729;54.906;73.316;2022-09-03T04:14:43;12.00;11.00;4.00
65973;PMS5003;52729;54.906;73.316;2022-09-03T04:17:49;11.25;10.00;5.00
65973;PMS5003;52729;54.906;73.316;2022-09-03T04:21:01;11.75;9.25;4.00
65973;PMS5003;52729;54.906;73.316;2022-09-03T04:24:16;14.25;12.00;6.00
65973;PMS5003;52729;54.906;73.316;2022-09-03T04:27:17;18.00;14.50;6.00
65973;PMS5003;52729;54.906;73.316;2022-09-03T04:30:29;17.50;16.50;6.25
65973;PMS5003;52729;54.906;73.316;2022-09-03T04:33:30;17.00;14.00;6.00
65973;PMS5003;52729;54.906;73.316;2022-09-03T04:36:36;16.00;14.50;7.00
65973;PMS5003;52729;54.906;73.316;2022-09-03T04:39:37;18.00;16.50;6.75
65973;PMS5003;52729;54.906;73.316;2022-09-03T04:42:41;16.75;16.00;6.00
65973;PMS5003;52729;54.906;73.316;2022-09-03T04:45:57;16.00;15.00;4.00
65973;PMS5003;52729;54.906;73.316;2022-09-03T04:48:58;16.00;15.00;5.75
65973;PMS5003;52729;54.906;73.316;2022-09-03T04:51:59;14.00;12.50;6.00
65973;PMS5003;52729;54.906;73.316;2022-09-03T04:55:00;13.25;11.50;5.25
65973;PMS5003;52729;54.906;73.316;2022-09-03T04:58:09;12.00;12.00;6.00
65973;PMS5003;52729;54.906;73.316;2022-09-03T05:01:16;12.50;12.25;5.75
65973;PMS5003;52729;54.906;73.316;2022-09-03T05:04:18;13.00;11.00;5.00
65973;PMS5003;52729;54.906;73.316;2022-09-03T05:07:19;13.00;12.50;5.00
65973;PMS5003;52729;54.906;73.316;2022-09-03T05:10:20;13.00;12.50;5.50
65973;PMS5003;52729;54.906;73.316;2022-09-03T05:13:26;14.00;13.00;5.00
65973;PMS5003;52729;54.906;73.316;2022-09-03T05:16:28;12.25;10.00;4.00
65973;PMS5003;52729;54.906;73.316;2022-09-03T05:19:30;11.50;10.50;5.00
65973;PMS5003;52729;54.906;73.316;2022-09-03T05:22:36;11.00;10.00;4.00
65973;PMS5003;52729;54.906;73.316;2022-09-03T05:25:37;12.50;10.50;6.00
65973;PMS5003;52729;54.906;73.316;2022-09-03T05:28:51;15.00;12.00;5.00
65973;PMS5003;52729;54.906;73.316;2022-09-03T05:31:52;12.00;9.00;5.00
65973;PMS5003;52729;54.906;73.316;2022-09-03T05:34:59;14.50;11.75;7.00
65973;PMS5003;52729;54.906;73.316;2022-09-03T05:38:00;17.00;13.00;7.00
65973;PMS5003;52729;54.906;73.316;2022-09-03T05:41:03;15.25;11.50;6.25
65973;PMS5003;52729;54.906;73.316;2022-09-03T05:44:04;18.00;13.75;6.00
65973;PMS5003;52729;54.906;73.316;2022-09-03T05:47:05;18.00;12.25;6.25
65973;PMS5003;52729;54.906;73.316;2022-09-03T05:50:07;16.25;13.00;6.00
65973;PMS5003;52729;54.906;73.316;2022-09-03T05:53:14;17.00;12.75;6.25
65973;PMS5003;52729;54.906;73.316;2022-09-03T05:56:17;18.00;17.00;6.75
65973;PMS5003;52729;54.906;73.316;2022-09-03T05:59:18;21.50;20.50;8.00
65973;PMS5003;52729;54.906;73.316;2022-09-03T06:02:19;17.00;16.00;7.00
65973;PMS5003;52729;54.906;73.316;2022-09-03T06:05:21;16.25;16.00;7.25
65973;PMS5003;52729;54.906;73.316;2022-09-03T06:08:24;20.50;18.50;7.75
65973;PMS5003;52729;54.906;73.316;2022-09-03T06:11:25;17.50;16.50;7.00
65973;PMS5003;52729;54.906;73.316;2022-09-03T06:14:32;18.00;18.00;8.00
65973;PMS5003;52729;54.906;73.316;2022-09-03T06:17:38;16.00;14.50;7.00
65973;PMS5003;52729;54.906;73.316;2022-09-03T06:20:39;18.75;17.00;7.75
65973;PMS5003;52729;54.906;73.316;2022-09-03T06:23:40;18.75;17.25;7.00
65973;PMS5003;52729;54.906;73.316;2022-09-03T06:26:51;22.00;18.00;9.00
65973;PMS5003;52729;54.906;73.316;2022-09-03T06:29:52;19.50;16.50;7.75
65973;PMS5003;52729;54.906;73.316;2022-09-03T06:32:54;18.00;15.50;8.00
65973;PMS5003;52729;54.906;73.316;2022-09-03T06:35:56;19.25;17.00;8.50
65973;PMS5003;52729;54.906;73.316;2022-09-03T06:39:04;15.75;15.75;7.00
65973;PMS5003;52729;54.906;73.316;2022-09-03T06:42:05;15.50;15.50;7.00
65973;PMS5003;52729;54.906;73.316;2022-09-03T06:45:10;17.75;15.00;8.00
65973;PMS5003;52729;54.906;73.316;2022-09-03T06:48:15;19.50;18.00;9.00
65973;PMS5003;52729;54.906;73.316;2022-09-03T06:51:23;18.00;16.00;7.50
65973;PMS5003;52729;54.906;73.316;2022-09-03T06:54:25;19.25;17.00;7.50
65973;PMS5003;52729;54.906;73.316;2022-09-03T06:57:29;18.00;17.00;8.75
65973;PMS5003;52729;54.906;73.316;2022-09-03T07:00:30;18.00;18.00;8.00
65973;PMS5003;52729;54.906;73.316;2022-09-03T07:03:31;17.00;15.00;7.00
65973;PMS5003;52729;54.906;73.316;2022-09-03T07:06:38;17.75;15.75;7.00
65973;PMS5003;52729;54.906;73.316;2022-09-03T07:09:40;17.00;17.00;7.50
65973;PMS5003;52729;54.906;73.316;2022-09-03T07:12:50;17.00;16.00;8.75
65973;PMS5003;52729;54.906;73.316;2022-09-03T07:16:24;16.25;14.75;8.00
65973;PMS5003;52729;54.906;73.316;2022-09-03T07:19:24;17.00;17.00;9.00
65973;PMS5003;52729;54.906;73.316;2022-09-03T07:22:25;23.25;20.00;9.75
65973;PMS5003;52729;54.906;73.316;2022-09-03T07:25:26;19.50;18.00;8.50
65973;PMS5003;52729;54.906;73.316;2022-09-03T07:28:38;17.50;17.50;7.75
65973;PMS5003;52729;54.906;73.316;2022-09-03T07:31:49;15.50;15.50;7.00
65973;PMS5003;52729;54.906;73.316;2022-09-03T07:34:50;20.50;19.00;10.00
65973;PMS5003;52729;54.906;73.316;2022-09-03T07:37:52;18.00;17.00;7.00
65973;PMS5003;52729;54.906;73.316;2022-09-03T07:41:05;16.75;13.75;5.00
65973;PMS5003;52729;54.906;73.316;2022-09-03T07:44:07;17.00;14.25;6.00
65973;PMS5003;52729;54.906;73.316;2022-09-03T07:47:19;17.00;16.00;6.00
65973;PMS5003;52729;54.906;73.316;2022-09-03T07:50:20;12.00;11.00;5.00
65973;PMS5003;52729;54.906;73.316;2022-09-03T07:53:21;9.00;9.00;5.00
65973;PMS5003;52729;54.906;73.316;2022-09-03T07:56:22;12.00;10.75;5.00
65973;PMS5003;52729;54.906;73.316;2022-09-03T07:59:29;13.25;12.25;5.25
65973;PMS5003;52729;54.906;73.316;2022-09-03T08:02:30;14.00;13.00;5.00
65973;PMS5003;52729;54.906;73.316;2022-09-03T08:05:36;15.75;13.00;4.00
65973;PMS5003;52729;54.906;73.316;2022-09-03T08:08:37;13.00;10.00;4.00
65973;PMS5003;52729;54.906;73.316;2022-09-03T08:11:44;10.00;9.75;4.25
65973;PMS5003;52729;54.906;73.316;2022-09-03T08:14:46;10.00;10.00;3.00
65973;PMS5003;52729;54.906;73.316;2022-09-03T08:17:47;9.75;9.00;2.50
65973;PMS5003;52729;54.906;73.316;2022-09-03T08:20:53;8.00;7.25;2.00
65973;PMS5003;52729;54.906;73.316;2022-09-03T08:23:59;10.00;10.00;4.00
65973;PMS5003;52729;54.906;73.316;2022-09-03T08:27:03;8.00;7.25;4.00
65973;PMS5003;52729;54.906;73.316;2022-09-03T08:30:04;11.00;10.00;5.00
65973;PMS5003;52729;54.906;73.316;2022-09-03T08:33:14;10.00;8.00;4.00
65973;PMS5003;52729;54.906;73.316;2022-09-03T08:36:17;11.00;10.75;4.00
65973;PMS5003;52729;54.906;73.316;2022-09-03T08:39:19;12.25;11.50;4.00
65973;PMS5003;52729;54.906;73.316;2022-09-03T08:45:35;8.00;6.25;4.00
65973;PMS5003;52729;54.906;73.316;2022-09-03T08:48:37;8.00;7.00;4.00
65973;PMS5003;52729;54.906;73.316;2022-09-03T08:51:44;6.00;6.00;2.00
65973;PMS5003;52729;54.906;73.316;2022-09-03T08:54:47;6.00;6.00;1.00
65973;PMS5003;52729;54.906;73.316;2022-09-03T09:07:41;9.00;9.00;4.00
65973;PMS5003;52729;54.906;73.316;2022-09-03T09:10:46;10.50;8.50;4.75
65973;PMS5003;52729;54.906;73.316;2022-09-03T09:13:59;11.00;9.75;4.25
65973;PMS5003;52729;54.906;73.316;2022-09-03T09:23:47;10.00;9.00;5.00
65973;PMS5003;52729;54.906;73.316;2022-09-03T09:26:49;11.00;11.00;5.25
65973;PMS5003;52729;54.906;73.316;2022-09-03T09:30:00;15.00;14.25;6.00
65973;PMS5003;52729;54.906;73.316;2022-09-03T09:33:04;13.00;12.00;5.50
65973;PMS5003;52729;54.906;73.316;2022-09-03T09:36:16;12.00;11.75;5.00
65973;PMS5003;52729;54.906;73.316;2022-09-03T09:39:19;16.75;14.50;8.00
65973;PMS5003;52729;54.906;73.316;2022-09-03T09:42:21;19.75;18.50;8.25
65973;PMS5003;52729;54.906;73.316;2022-09-03T09:45:22;17.50;15.50;6.25
65973;PMS5003;52729;54.906;73.316;2022-09-03T09:48:25;17.00;14.00;7.00
65973;PMS5003;52729;54.906;73.316;2022-09-03T09:51:30;17.00;16.00;7.00
65973;PMS5003;52729;54.906;73.316;2022-09-03T09:54:32;19.75;17.50;8.00
65973;PMS5003;52729;54.906;73.316;2022-09-03T09:57:33;23.25;22.75;11.00
65973;PMS5003;52729;54.906;73.316;2022-09-03T10:00:34;22.25;22.00;11.00
65973;PMS5003;52729;54.906;73.316;2022-09-03T10:03:39;19.75;17.50;8.00
65973;PMS5003;52729;54.906;73.316;2022-09-03T10:06:41;22.00;19.00;10.00
65973;PMS5003;52729;54.906;73.316;2022-09-03T10:10:05;16.00;16.00;7.25
65973;PMS5003;52729;54.906;73.316;2022-09-03T10:13:15;21.75;19.50;11.00
65973;PMS5003;52729;54.906;73.316;2022-09-03T10:16:30;24.00;22.00;11.25
65973;PMS5003;52729;54.906;73.316;2022-09-03T10:23:24;20.00;18.00;8.00
65973;PMS5003;52729;54.906;73.316;2022-09-03T10:26:33;22.00;20.00;8.00
65973;PMS5003;52729;54.906;73.316;2022-09-03T10:29:41;19.25;17.00;7.00
65973;PMS5003;52729;54.906;73.316;2022-09-03T10:36:00;15.00;12.00;6.75
65973;PMS5003;52729;54.906;73.316;2022-09-03T10:55:24;70.50;62.00;38.50
65973;PMS5003;52729;54.906;73.316;2022-09-03T11:01:52;73.50;63.50;38.00
65973;PMS5003;52729;54.906;73.316;2022-09-03T11:05:05;65.75;54.50;33.50
65973;PMS5003;52729;54.906;73.316;2022-09-03T11:14:39;56.50;44.75;28.50
65973;PMS5003;52729;54.906;73.316;2022-09-03T11:17:47;50.00;40.00;26.00
65973;PMS5003;52729;54.906;73.316;2022-09-03T11:20:50;48.00;37.75;24.50
65973;PMS5003;52729;54.906;73.316;2022-09-03T11:24:03;49.00;40.00;25.50
65973;PMS5003;52729;54.906;73.316;2022-09-03T11:27:15;42.00;34.50;22.00
65973;PMS5003;52729;54.906;73.316;2022-09-03T11:30:24;43.00;34.75;22.00
65973;PMS5003;52729;54.906;73.316;2022-09-03T11:33:28;35.75;30.50;20.00
65973;PMS5003;52729;54.906;73.316;2022-09-03T11:36:38;37.25;31.50;20.00
65973;PMS5003;52729;54.906;73.316;2022-09-03T11:39:39;31.00;29.00;18.00
65973;PMS5003;52729;54.906;73.316;2022-09-03T11:42:41;29.00;28.00;18.50
65973;PMS5003;52729;54.906;73.316;2022-09-03T11:45:48;31.00;28.50;18.00
65973;PMS5003;52729;54.906;73.316;2022-09-03T11:48:50;33.25;30.00;19.00
65973;PMS5003;52729;54.906;73.316;2022-09-03T11:52:01;31.50;28.25;17.50
65973;PMS5003;52729;54.906;73.316;2022-09-03T11:55:03;33.50;30.25;17.50
65973;PMS5003;52729;54.906;73.316;2022-09-03T11:58:31;31.75;29.00;16.75
65973;PMS5003;52729;54.906;73.316;2022-09-03T12:01:43;38.00;30.50;18.00
65973;PMS5003;52729;54.906;73.316;2022-09-03T12:08:18;41.00;34.25;21.00
65973;PMS5003;52729;54.906;73.316;2022-09-03T12:11:37;40.75;33.00;20.25
65973;PMS5003;52729;54.906;73.316;2022-09-03T12:18:50;44.00;36.00;23.00
65973;PMS5003;52729;54.906;73.316;2022-09-03T12:21:19;40.50;33.75;23.00
65973;PMS5003;52729;54.906;73.316;2022-09-03T12:24:21;46.00;38.00;22.00
65973;PMS5003;52729;54.906;73.316;2022-09-03T12:27:32;43.75;35.50;21.75
65973;PMS5003;52729;54.906;73.316;2022-09-03T12:30:33;45.75;38.00;24.50
65973;PMS5003;52729;54.906;73.316;2022-09-03T12:33:39;45.25;37.75;24.00
65973;PMS5003;52729;54.906;73.316;2022-09-03T12:36:51;49.75;41.00;26.00
65973;PMS5003;52729;54.906;73.316;2022-09-03T12:40:02;44.75;36.00;24.50
65973;PMS5003;52729;54.906;73.316;2022-09-03T12:43:12;42.00;35.25;22.50
65973;PMS5003;52729;54.906;73.316;2022-09-03T12:46:14;44.50;36.00;22.50
65973;PMS5003;52729;54.906;73.316;2022-09-03T12:49:15;48.25;40.00;24.00
65973;PMS5003;52729;54.906;73.316;2022-09-03T12:55:25;49.00;40.00;24.50
65973;PMS5003;52729;54.906;73.316;2022-09-03T12:58:41;51.50;40.50;26.50
65973;PMS5003;52729;54.906;73.316;2022-09-03T13:01:55;51.50;41.50;27.50
65973;PMS5003;52729;54.906;73.316;2022-09-03T13:04:58;52.25;43.00;27.00
65973;PMS5003;52729;54.906;73.316;2022-09-03T13:08:12;53.50;43.50;28.00
65973;PMS5003;52729;54.906;73.316;2022-09-03T13:11:25;53.50;43.00;29.00
65973;PMS5003;52729;54.906;73.316;2022-09-03T13:14:26;49.00;40.50;26.00
65973;PMS5003;52729;54.906;73.316;2022-09-03T13:26:55;46.00;38.00;25.00
65973;PMS5003;52729;54.906;73.316;2022-09-03T13:30:15;41.00;35.00;22.50
65973;PMS5003;52729;54.906;73.316;2022-09-03T13:33:21;44.00;37.25;24.50
65973;PMS5003;52729;54.906;73.316;2022-09-03T13:39:58;42.00;34.00;21.00
65973;PMS5003;52729;54.906;73.316;2022-09-03T13:43:02;44.00;35.00;24.00
65973;PMS5003;52729;54.906;73.316;2022-09-03T13:46:16;43.25;36.25;24.00
65973;PMS5003;52729;54.906;73.316;2022-09-03T13:53:07;44.00;37.00;22.75
65973;PMS5003;52729;54.906;73.316;2022-09-03T13:56:15;42.25;36.00;23.50
65973;PMS5003;52729;54.906;73.316;2022-09-03T14:02:44;53.00;42.50;27.00
65973;PMS5003;52729;54.906;73.316;2022-09-03T14:06:07;49.25;41.00;26.00
65973;PMS5003;52729;54.906;73.316;2022-09-03T14:09:19;49.50;40.00;25.50
65973;PMS5003;52729;54.906;73.316;2022-09-03T14:15:48;51.00;41.50;26.50
65973;PMS5003;52729;54.906;73.316;2022-09-03T14:19:01;44.50;36.00;24.00
65973;PMS5003;52729;54.906;73.316;2022-09-03T14:22:11;45.00;37.50;24.00
65973;PMS5003;52729;54.906;73.316;2022-09-03T14:25:16;42.50;35.00;23.50
65973;PMS5003;52729;54.906;73.316;2022-09-03T14:28:37;43.25;37.00;24.25
65973;PMS5003;52729;54.906;73.316;2022-09-03T14:35:07;35.50;31.50;20.50
65973;PMS5003;52729;54.906;73.316;2022-09-03T14:51:07;26.75;25.50;16.50
65973;PMS5003;52729;54.906;73.316;2022-09-03T14:54:29;25.75;24.50;15.00
65973;PMS5003;52729;54.906;73.316;2022-09-03T15:00:50;24.00;24.00;16.00
65973;PMS5003;52729;54.906;73.316;2022-09-03T15:07:04;23.00;23.00;14.00
65973;PMS5003;52729;54.906;73.316;2022-09-03T15:13:19;20.25;19.25;11.75
65973;PMS5003;52729;54.906;73.316;2022-09-03T15:20:10;19.50;18.00;9.00
65973;PMS5003;52729;54.906;73.316;2022-09-03T15:23:31;20.25;19.25;10.25
65973;PMS5003;52729;54.906;73.316;2022-09-03T15:27:00;16.00;16.00;7.00
65973;PMS5003;52729;54.906;73.316;2022-09-03T15:30:07;18.00;17.75;8.00
65973;PMS5003;52729;54.906;73.316;2022-09-03T15:33:16;16.25;15.00;6.75
65973;PMS5003;52729;54.906;73.316;2022-09-03T15:36:20;15.75;15.00;6.00
65973;PMS5003;52729;54.906;73.316;2022-09-03T15:39:24;13.25;11.25;4.25
65973;PMS5003;52729;54.906;73.316;2022-09-03T15:42:27;14.00;12.00;6.00
65973;PMS5003;52729;54.906;73.316;2022-09-03T15:55:14;17.50;14.50;6.00
65973;PMS5003;52729;54.906;73.316;2022-09-03T15:58:25;17.00;16.00;7.00
65973;PMS5003;52729;54.906;73.316;2022-09-03T16:01:47;15.00;12.00;6.50
65973;PMS5003;52729;54.906;73.316;2022-09-03T16:05:02;13.50;13.50;5.00
65973;PMS5003;52729;54.906;73.316;2022-09-03T16:11:15;15.00;14.00;7.00
65973;PMS5003;52729;54.906;73.316;2022-09-03T16:14:27;14.50;13.50;6.00
65973;PMS5003;52729;54.906;73.316;2022-09-03T16:23:58;15.50;14.00;7.00
65973;PMS5003;52729;54.906;73.316;2022-09-03T16:27:08;15.25;13.25;8.00
65973;PMS5003;52729;54.906;73.316;2022-09-03T16:30:20;15.50;13.50;7.00
65973;PMS5003;52729;54.906;73.316;2022-09-03T16:33:32;17.00;16.00;8.00
65973;PMS5003;52729;54.906;73.316;2022-09-03T16:39:54;18.00;17.00;6.25
65973;PMS5003;52729;54.906;73.316;2022-09-03T16:52:40;16.50;16.00;8.75
65973;PMS5003;52729;54.906;73.316;2022-09-03T16:59:16;18.50;18.00;8.00
65973;PMS5003;52729;54.906;73.316;2022-09-03T17:05:50;18.50;16.50;7.00
65973;PMS5003;52729;54.906;73.316;2022-09-03T17:09:04;18.00;17.00;8.75
65973;PMS5003;52729;54.906;73.316;2022-09-03T17:15:22;17.50;16.50;7.00
65973;PMS5003;52729;54.906;73.316;2022-09-03T17:18:50;14.00;14.00;6.00
65973;PMS5003;52729;54.906;73.316;2022-09-03T17:25:34;13.00;13.00;6.00
65973;PMS5003;52729;54.906;73.316;2022-09-03T17:35:19;16.00;14.00;7.00
65973;PMS5003;52729;54.906;73.316;2022-09-03T17:38:48;17.50;16.50;7.50
65973;PMS5003;52729;54.906;73.316;2022-09-03T17:42:03;18.00;17.00;7.50
65973;PMS5003;52729;54.906;73.316;2022-09-03T17:48:20;16.00;16.00;7.00
65973;PMS5003;52729;54.906;73.316;2022-09-03T17:55:00;14.50;14.50;6.75
65973;PMS5003;52729;54.906;73.316;2022-09-03T18:01:53;17.00;15.75;8.50
65973;PMS5003;52729;54.906;73.316;2022-09-03T18:05:18;17.50;17.50;8.75
65973;PMS5003;52729;54.906;73.316;2022-09-03T18:08:23;22.00;20.00;11.00
65973;PMS5003;52729;54.906;73.316;2022-09-03T18:17:57;24.50;22.00;13.00
65973;PMS5003;52729;54.906;73.316;2022-09-03T18:21:10;28.00;25.00;16.00
65973;PMS5003;52729;54.906;73.316;2022-09-03T18:24:42;26.50;26.50;16.75
65973;PMS5003;52729;54.906;73.316;2022-09-03T18:28:08;28.50;27.50;18.00
65973;PMS5003;52729;54.906;73.316;2022-09-03T18:31:29;39.75;32.75;19.25
65973;PMS5003;52729;54.906;73.316;2022-09-03T18:34:48;47.50;37.00;22.50
65973;PMS5003;52729;54.906;73.316;2022-09-03T18:38:12;55.00;44.25;27.75
65973;PMS5003;52729;54.906;73.316;2022-09-03T18:44:59;67.00;56.25;37.25
65973;PMS5003;52729;54.906;73.316;2022-09-03T18:59:01;47.25;39.00;25.75
65973;PMS5003;52729;54.906;73.316;2022-09-03T19:02:59;31.00;27.00;17.75
65973;PMS5003;52729;54.906;73.316;2022-09-03T19:16:59;19.00;17.75;7.00
65973;PMS5003;52729;54.906;73.316;2022-09-03T19:20:31;21.25;20.25;9.75
65973;PMS5003;52729;54.906;73.316;2022-09-03T19:24:03;26.75;25.00;12.75
65973;PMS5003;52729;54.906;73.316;2022-09-03T19:34:47;11.50;10.00;3.00
65973;PMS5003;52729;54.906;73.316;2022-09-03T19:38:25;7.50;7.00;1.00
65973;PMS5003;52729;54.906;73.316;2022-09-03T19:42:37;5.00;5.00;0.75
65973;PMS5003;52729;54.906;73.316;2022-09-03T19:55:51;5.00;4.75;2.00
65973;PMS5003;52729;54.906;73.316;2022-09-03T19:59:22;5.00;5.00;2.00
65973;PMS5003;52729;54.906;73.316;2022-09-03T20:02:44;4.00;4.00;1.25
65973;PMS5003;52729;54.906;73.316;2022-09-03T20:06:05;4.00;4.00;1.00
65973;PMS5003;52729;54.906;73.316;2022-09-03T20:09:29;7.50;6.00;1.75
65973;PMS5003;52729;54.906;73.316;2022-09-03T20:12:54;3.25;3.25;0.00
65973;PMS5003;52729;54.906;73.316;2022-09-03T20:16:06;5.00;3.00;0.00
65973;PMS5003;52729;54.906;73.316;2022-09-03T20:19:11;8.25;7.50;1.00
65973;PMS5003;52729;54.906;73.316;2022-09-03T20:31:40;20.00;19.50;7.00
65973;PMS5003;52729;54.906;73.316;2022-09-03T20:41:44;2.00;2.00;0.00
65973;PMS5003;52729;54.906;73.316;2022-09-03T20:50:35;3.75;3.00;0.00
65973;PMS5003;52729;54.906;73.316;2022-09-03T20:53:51;4.00;2.00;0.00
65973;PMS5003;52729;54.906;73.316;2022-09-03T21:00:06;2.00;1.00;0.00
65973;PMS5003;52729;54.906;73.316;2022-09-03T21:09:42;3.50;2.75;0.00
65973;PMS5003;52729;54.906;73.316;2022-09-03T21:13:18;4.00;4.00;0.00
65973;PMS5003;52729;54.906;73.316;2022-09-03T21:26:24;10.25;9.00;3.00
65973;PMS5003;52729;54.906;73.316;2022-09-03T21:29:36;11.50;10.00;4.00
65973;PMS5003;52729;54.906;73.316;2022-09-03T21:32:54;7.00;6.00;2.00
65973;PMS5003;52729;54.906;73.316;2022-09-03T21:36:06;6.00;5.00;1.00
65973;PMS5003;52729;54.906;73.316;2022-09-03T21:39:12;5.00;5.00;1.00
65973;PMS5003;52729;54.906;73.316;2022-09-03T21:42:19;7.00;5.00;2.00
65973;PMS5003;52729;54.906;73.316;2022-09-03T21:45:43;6.25;5.00;2.00
65973;PMS5003;52729;54.906;73.316;2022-09-03T21:52:13;6.00;6.00;3.00
65973;PMS5003;52729;54.906;73.316;2022-09-03T22:05:10;14.00;11.75;5.00
65973;PMS5003;52729;54.906;73.316;2022-09-03T22:08:15;16.50;14.50;6.00
65973;PMS5003;52729;54.906;73.316;2022-09-03T22:11:24;12.00;11.50;4.00
65973;PMS5003;52729;54.906;73.316;2022-09-03T22:14:39;11.75;11.50;4.00
65973;PMS5003;52729;54.906;73.316;2022-09-03T22:21:00;16.25;11.75;4.00
65973;PMS5003;52729;54.906;73.316;2022-09-03T22:27:35;12.00;10.00;4.00
65973;PMS5003;52729;54.906;73.316;2022-09-03T22:33:53;10.50;10.50;5.00
65973;PMS5003;52729;54.906;73.316;2022-09-03T22:37:04;7.75;7.75;5.00
65973;PMS5003;52729;54.906;73.316;2022-09-03T22:47:03;8.00;8.00;3.00
65973;PMS5003;52729;54.906;73.316;2022-09-03T22:50:26;9.50;9.50;4.75
65973;PMS5003;52729;54.906;73.316;2022-09-03T22:56:48;11.50;10.00;5.00
65973;PMS5003;52729;54.906;73.316;2022-09-03T22:59:55;14.00;12.50;5.00
65973;PMS5003;52729;54.906;73.316;2022-09-03T23:03:07;17.00;14.75;6.25
65973;PMS5003;52729;54.906;73.316;2022-09-03T23:06:25;19.25;16.00;8.00
65973;PMS5003;52729;54.906;73.316;2022-09-03T23:09:37;20.75;18.00;7.00
65973;PMS5003;52729;54.906;73.316;2022-09-03T23:12:47;19.75;17.00;7.00
65973;PMS5003;52729;54.906;73.316;2022-09-03T23:15:57;20.50;19.50;8.00
65973;PMS5003;52729;54.906;73.316;2022-09-03T23:19:00;22.50;22.00;9.50
65973;PMS5003;52729;54.906;73.316;2022-09-03T23:22:22;18.75;17.50;9.50
65973;PMS5003;52729;54.906;73.316;2022-09-03T23:25:32;21.75;19.75;11.00
65973;PMS5003;52729;54.906;73.316;2022-09-03T23:28:35;20.00;19.00;9.00
65973;PMS5003;52729;54.906;73.316;2022-09-03T23:31:37;21.25;21.25;10.00
65973;PMS5003;52729;54.906;73.316;2022-09-03T23:34:38;23.50;22.25;11.00